sensor_id;sensor_type;location;lat;lon;timestamp;temperature;humidity
43414;DHT22;29013;49.676;8.606;2023-02-07T00:01:45;3.4;99.7
43414;DHT22;29013;49.676;8.606;2023-02-07T00:07:14;3.3;99.6
43414;DHT22;29013;49.676;8.606;2023-02-07T00:12:56;3.3;99.9
43414;DHT22;29013;49.676;8.606;2023-02-07T00:18:36;3.3;99.8
43414;DHT22;29013;49.676;8.606;2023-02-07T00:23:55;3.5;99.4
43414;DHT22;29013;49.676;8.606;2023-02-07T00:29:19;3.3;99.5
43414;DHT22;29013;49.676;8.606;2023-02-07T00:34:38;3.2;99.7
43414;DHT22;29013;49.676;8.606;2023-02-07T00:40:00;3.1;99.9
43414;DHT22;29013;49.676;8.606;2023-02-07T00:45:23;3.3;99.9
43414;DHT22;29013;49.676;8.606;2023-02-07T00:50:43;3.4;99.9
43414;DHT22;29013;49.676;8.606;2023-02-07T00:56:06;3.5;99.8
43414;DHT22;29013;49.676;8.606;2023-02-07T01:01:26;3.4;99.8
43414;DHT22;29013;49.676;8.606;2023-02-07T01:06:50;3.5;99.8
43414;DHT22;29013;49.676;8.606;2023-02-07T01:12:16;3.5;99.7
43414;DHT22;29013;49.676;8.606;2023-02-07T01:18:04;3.4;99.9
43414;DHT22;29013;49.676;8.606;2023-02-07T01:23:27;3.4;99.9
43414;DHT22;29013;49.676;8.606;2023-02-07T01:28:51;3.1;99.9
43414;DHT22;29013;49.676;8.606;2023-02-07T01:34:14;3.0;99.9
43414;DHT22;29013;49.676;8.606;2023-02-07T01:39:35;2.9;99.9
43414;DHT22;29013;49.676;8.606;2023-02-07T01:45:03;2.9;99.9
43414;DHT22;29013;49.676;8.606;2023-02-07T01:50:23;2.9;99.9
43414;DHT22;29013;49.676;8.606;2023-02-07T01:55:46;2.8;99.9
43414;DHT22;29013;49.676;8.606;2023-02-07T02:01:09;2.8;99.2
43414;DHT22;29013;49.676;8.606;2023-02-07T02:06:29;2.8;99.1
43414;DHT22;29013;49.676;8.606;2023-02-07T02:12:17;2.7;98.6
43414;DHT22;29013;49.676;8.606;2023-02-07T02:17:41;2.7;98.3
43414;DHT22;29013;49.676;8.606;2023-02-07T02:23:16;2.5;98.5
43414;DHT22;29013;49.676;8.606;2023-02-07T02:34:17;2.5;98.3
43414;DHT22;29013;49.676;8.606;2023-02-07T02:39:39;2.3;98.3
43414;DHT22;29013;49.676;8.606;2023-02-07T02:45:07;2.1;98.5
43414;DHT22;29013;49.676;8.606;2023-02-07T02:50:30;2.0;98.4
43414;DHT22;29013;49.676;8.606;2023-02-07T02:56:16;1.9;98.2
43414;DHT22;29013;49.676;8.606;2023-02-07T03:01:37;1.9;97.9
43414;DHT22;29013;49.676;8.606;2023-02-07T03:07:25;2.1;98.1
43414;DHT22;29013;49.676;8.606;2023-02-07T03:12:41;2.3;97.4
43414;DHT22;29013;49.676;8.606;2023-02-07T03:18:03;2.2;97.6
43414;DHT22;29013;49.676;8.606;2023-02-07T03:23:21;2.2;97.6
43414;DHT22;29013;49.676;8.606;2023-02-07T03:28:43;2.2;98.1
43414;DHT22;29013;49.676;8.606;2023-02-07T03:34:07;2.1;97.8
43414;DHT22;29013;49.676;8.606;2023-02-07T03:39:32;2.0;97.8
43414;DHT22;29013;49.676;8.606;2023-02-07T03:44:54;2.0;97.8
43414;DHT22;29013;49.676;8.606;2023-02-07T03:50:16;1.7;97.7
43414;DHT22;29013;49.676;8.606;2023-02-07T03:55:36;1.4;97.7
43414;DHT22;29013;49.676;8.606;2023-02-07T04:01:16;1.2;98.5
43414;DHT22;29013;49.676;8.606;2023-02-07T04:06:38;1.2;98.1
43414;DHT22;29013;49.676;8.606;2023-02-07T04:12:02;1.1;98.2
43414;DHT22;29013;49.676;8.606;2023-02-07T04:17:23;1.0;98.7
43414;DHT22;29013;49.676;8.606;2023-02-07T04:22:45;0.8;98.7
43414;DHT22;29013;49.676;8.606;2023-02-07T04:28:08;0.7;98.8
43414;DHT22;29013;49.676;8.606;2023-02-07T04:33:26;0.6;99.0
43414;DHT22;29013;49.676;8.606;2023-02-07T04:38:49;0.6;99.4
43414;DHT22;29013;49.676;8.606;2023-02-07T04:44:12;0.7;99.8
43414;DHT22;29013;49.676;8.606;2023-02-07T04:49:30;0.9;99.9
43414;DHT22;29013;49.676;8.606;2023-02-07T04:54:53;0.9;99.9
43414;DHT22;29013;49.676;8.606;2023-02-07T05:00:19;1.0;99.9
43414;DHT22;29013;49.676;8.606;2023-02-07T05:05:43;0.9;99.6
43414;DHT22;29013;49.676;8.606;2023-02-07T05:11:05;0.8;99.4
43414;DHT22;29013;49.676;8.606;2023-02-07T05:16:29;0.7;99.4
43414;DHT22;29013;49.676;8.606;2023-02-07T05:21:53;0.6;99.4
43414;DHT22;29013;49.676;8.606;2023-02-07T05:27:16;0.5;99.4
43414;DHT22;29013;49.676;8.606;2023-02-07T05:33:00;0.4;99.8
43414;DHT22;29013;49.676;8.606;2023-02-07T05:38:16;0.5;99.5
43414;DHT22;29013;49.676;8.606;2023-02-07T05:43:41;0.3;99.6
43414;DHT22;29013;49.676;8.606;2023-02-07T05:49:01;0.3;99.7
43414;DHT22;29013;49.676;8.606;2023-02-07T05:54:22;0.3;99.9
43414;DHT22;29013;49.676;8.606;2023-02-07T05:59:46;0.4;99.9
43414;DHT22;29013;49.676;8.606;2023-02-07T06:05:05;0.5;99.9
43414;DHT22;29013;49.676;8.606;2023-02-07T06:10:25;0.6;99.9
43414;DHT22;29013;49.676;8.606;2023-02-07T06:15:46;0.5;99.9
43414;DHT22;29013;49.676;8.606;2023-02-07T06:21:24;0.3;99.9
43414;DHT22;29013;49.676;8.606;2023-02-07T06:26:46;0.2;99.9
43414;DHT22;29013;49.676;8.606;2023-02-07T06:32:09;0.1;99.9
43414;DHT22;29013;49.676;8.606;2023-02-07T06:37:29;0.0;99.9
43414;DHT22;29013;49.676;8.606;2023-02-07T06:42:49;-0.1;99.9
43414;DHT22;29013;49.676;8.606;2023-02-07T06:48:09;-0.2;99.9
43414;DHT22;29013;49.676;8.606;2023-02-07T06:53:28;0.0;99.9
43414;DHT22;29013;49.676;8.606;2023-02-07T06:58:49;-0.1;99.9
43414;DHT22;29013;49.676;8.606;2023-02-07T07:04:12;-0.1;99.9
43414;DHT22;29013;49.676;8.606;2023-02-07T07:09:35;-0.1;99.9
43414;DHT22;29013;49.676;8.606;2023-02-07T07:14:59;-0.1;99.9
43414;DHT22;29013;49.676;8.606;2023-02-07T07:20:23;-0.2;99.9
43414;DHT22;29013;49.676;8.606;2023-02-07T07:25:42;-0.1;99.9
43414;DHT22;29013;49.676;8.606;2023-02-07T07:31:06;-0.1;99.9
43414;DHT22;29013;49.676;8.606;2023-02-07T07:36:24;0.1;99.9
43414;DHT22;29013;49.676;8.606;2023-02-07T07:41:48;0.3;99.9
43414;DHT22;29013;49.676;8.606;2023-02-07T07:47:39;0.5;99.9
43414;DHT22;29013;49.676;8.606;2023-02-07T07:52:59;0.8;99.9
43414;DHT22;29013;49.676;8.606;2023-02-07T07:58:24;0.9;99.9
43414;DHT22;29013;49.676;8.606;2023-02-07T08:03:46;0.9;99.9
43414;DHT22;29013;49.676;8.606;2023-02-07T08:09:10;1.1;99.8
43414;DHT22;29013;49.676;8.606;2023-02-07T08:14:32;1.3;99.0
43414;DHT22;29013;49.676;8.606;2023-02-07T08:19:55;1.4;99.0
43414;DHT22;29013;49.676;8.606;2023-02-07T08:25:36;1.4;99.4
43414;DHT22;29013;49.676;8.606;2023-02-07T08:30:59;1.7;98.6
43414;DHT22;29013;49.676;8.606;2023-02-07T08:36:19;1.7;98.4
43414;DHT22;29013;49.676;8.606;2023-02-07T08:41:39;1.7;98.1
43414;DHT22;29013;49.676;8.606;2023-02-07T08:47:00;1.5;97.8
43414;DHT22;29013;49.676;8.606;2023-02-07T08:52:22;1.6;97.7
43414;DHT22;29013;49.676;8.606;2023-02-07T08:57:39;1.7;97.0
43414;DHT22;29013;49.676;8.606;2023-02-07T09:03:06;1.8;97.3
43414;DHT22;29013;49.676;8.606;2023-02-07T09:08:27;1.9;97.7
43414;DHT22;29013;49.676;8.606;2023-02-07T09:13:50;2.1;96.4
43414;DHT22;29013;49.676;8.606;2023-02-07T09:19:13;2.2;96.3
43414;DHT22;29013;49.676;8.606;2023-02-07T09:29:59;2.4;95.1
43414;DHT22;29013;49.676;8.606;2023-02-07T09:35:17;2.4;94.7
43414;DHT22;29013;49.676;8.606;2023-02-07T09:40:40;2.4;94.9
43414;DHT22;29013;49.676;8.606;2023-02-07T09:46:02;2.5;95.0
43414;DHT22;29013;49.676;8.606;2023-02-07T09:51:48;2.5;95.1
43414;DHT22;29013;49.676;8.606;2023-02-07T09:57:07;2.8;94.7
43414;DHT22;29013;49.676;8.606;2023-02-07T10:02:26;2.9;94.2
43414;DHT22;29013;49.676;8.606;2023-02-07T10:07:48;2.9;93.6
43414;DHT22;29013;49.676;8.606;2023-02-07T10:13:30;3.0;94.6
43414;DHT22;29013;49.676;8.606;2023-02-07T10:18:48;3.1;94.7
43414;DHT22;29013;49.676;8.606;2023-02-07T10:24:48;3.2;94.3
43414;DHT22;29013;49.676;8.606;2023-02-07T10:30:09;3.5;93.9
43414;DHT22;29013;49.676;8.606;2023-02-07T10:35:29;3.6;93.8
43414;DHT22;29013;49.676;8.606;2023-02-07T10:40:52;3.6;93.5
43414;DHT22;29013;49.676;8.606;2023-02-07T10:46:10;3.7;94.6
43414;DHT22;29013;49.676;8.606;2023-02-07T10:51:28;3.8;94.0
43414;DHT22;29013;49.676;8.606;2023-02-07T10:56:49;3.9;93.3
43414;DHT22;29013;49.676;8.606;2023-02-07T11:02:39;4.0;92.9
43414;DHT22;29013;49.676;8.606;2023-02-07T11:08:01;4.1;92.9
43414;DHT22;29013;49.676;8.606;2023-02-07T11:13:20;4.2;92.3
43414;DHT22;29013;49.676;8.606;2023-02-07T11:18:42;4.2;91.2
43414;DHT22;29013;49.676;8.606;2023-02-07T11:24:06;4.2;90.8
43414;DHT22;29013;49.676;8.606;2023-02-07T11:29:25;4.2;90.7
43414;DHT22;29013;49.676;8.606;2023-02-07T11:34:48;4.2;91.0
43414;DHT22;29013;49.676;8.606;2023-02-07T11:40:26;4.3;90.3
43414;DHT22;29013;49.676;8.606;2023-02-07T11:45:59;4.4;90.7
43414;DHT22;29013;49.676;8.606;2023-02-07T11:51:18;4.6;90.5
43414;DHT22;29013;49.676;8.606;2023-02-07T11:56:42;4.7;89.8
43414;DHT22;29013;49.676;8.606;2023-02-07T12:02:11;4.8;89.0
43414;DHT22;29013;49.676;8.606;2023-02-07T12:07:28;4.9;88.8
43414;DHT22;29013;49.676;8.606;2023-02-07T12:12:52;5.0;89.6
43414;DHT22;29013;49.676;8.606;2023-02-07T12:18:15;5.1;88.2
43414;DHT22;29013;49.676;8.606;2023-02-07T12:23:39;5.2;87.2
43414;DHT22;29013;49.676;8.606;2023-02-07T12:29:16;5.3;87.0
43414;DHT22;29013;49.676;8.606;2023-02-07T12:34:54;5.3;85.9
43414;DHT22;29013;49.676;8.606;2023-02-07T12:40:18;5.6;85.1
43414;DHT22;29013;49.676;8.606;2023-02-07T12:45:50;5.6;82.6
43414;DHT22;29013;49.676;8.606;2023-02-07T12:51:15;5.7;83.7
43414;DHT22;29013;49.676;8.606;2023-02-07T12:56:44;5.7;81.8
43414;DHT22;29013;49.676;8.606;2023-02-07T13:02:08;5.6;83.3
43414;DHT22;29013;49.676;8.606;2023-02-07T13:07:43;5.6;82.8
43414;DHT22;29013;49.676;8.606;2023-02-07T13:13:01;5.7;83.7
43414;DHT22;29013;49.676;8.606;2023-02-07T13:18:22;5.8;84.2
43414;DHT22;29013;49.676;8.606;2023-02-07T13:23:41;5.9;81.2
43414;DHT22;29013;49.676;8.606;2023-02-07T13:29:02;5.9;82.7
43414;DHT22;29013;49.676;8.606;2023-02-07T13:34:21;5.8;82.1
43414;DHT22;29013;49.676;8.606;2023-02-07T13:39:48;6.0;82.0
43414;DHT22;29013;49.676;8.606;2023-02-07T13:45:13;6.1;81.8
43414;DHT22;29013;49.676;8.606;2023-02-07T13:50:44;6.2;82.9
43414;DHT22;29013;49.676;8.606;2023-02-07T13:56:07;6.4;81.2
43414;DHT22;29013;49.676;8.606;2023-02-07T14:01:22;6.3;81.8
43414;DHT22;29013;49.676;8.606;2023-02-07T14:06:43;6.3;81.9
43414;DHT22;29013;49.676;8.606;2023-02-07T14:12:03;6.2;81.0
43414;DHT22;29013;49.676;8.606;2023-02-07T14:23:16;6.2;79.3
43414;DHT22;29013;49.676;8.606;2023-02-07T14:28:34;6.3;80.2
43414;DHT22;29013;49.676;8.606;2023-02-07T14:34:12;6.3;78.8
43414;DHT22;29013;49.676;8.606;2023-02-07T14:39:32;6.4;78.1
43414;DHT22;29013;49.676;8.606;2023-02-07T14:44:54;6.4;77.9
43414;DHT22;29013;49.676;8.606;2023-02-07T14:50:20;6.3;78.8
43414;DHT22;29013;49.676;8.606;2023-02-07T14:56:19;6.3;78.6
43414;DHT22;29013;49.676;8.606;2023-02-07T15:01:35;6.5;78.8
43414;DHT22;29013;49.676;8.606;2023-02-07T15:06:55;6.4;78.3
43414;DHT22;29013;49.676;8.606;2023-02-07T15:12:17;6.3;78.8
43414;DHT22;29013;49.676;8.606;2023-02-07T15:17:36;6.2;78.7
43414;DHT22;29013;49.676;8.606;2023-02-07T15:22:59;6.0;79.3
43414;DHT22;29013;49.676;8.606;2023-02-07T15:28:23;5.8;79.2
43414;DHT22;29013;49.676;8.606;2023-02-07T15:33:47;5.8;79.5
43414;DHT22;29013;49.676;8.606;2023-02-07T15:39:02;5.8;80.3
43414;DHT22;29013;49.676;8.606;2023-02-07T15:44:25;5.7;81.2
43414;DHT22;29013;49.676;8.606;2023-02-07T15:49:43;5.7;80.7
43414;DHT22;29013;49.676;8.606;2023-02-07T15:55:12;5.6;81.2
43414;DHT22;29013;49.676;8.606;2023-02-07T16:00:28;5.5;80.5
43414;DHT22;29013;49.676;8.606;2023-02-07T16:05:48;5.3;80.7
43414;DHT22;29013;49.676;8.606;2023-02-07T16:11:36;5.1;80.3
43414;DHT22;29013;49.676;8.606;2023-02-07T16:16:53;5.0;80.6
43414;DHT22;29013;49.676;8.606;2023-02-07T16:22:17;4.7;81.3
43414;DHT22;29013;49.676;8.606;2023-02-07T16:27:34;4.4;81.6
43414;DHT22;29013;49.676;8.606;2023-02-07T16:32:56;4.1;82.5
43414;DHT22;29013;49.676;8.606;2023-02-07T16:38:14;3.8;83.7
43414;DHT22;29013;49.676;8.606;2023-02-07T16:43:38;3.8;83.8
43414;DHT22;29013;49.676;8.606;2023-02-07T16:48:59;3.9;84.2
43414;DHT22;29013;49.676;8.606;2023-02-07T16:54:19;3.9;84.4
43414;DHT22;29013;49.676;8.606;2023-02-07T16:59:40;3.8;85.0
43414;DHT22;29013;49.676;8.606;2023-02-07T17:05:01;3.6;85.7
43414;DHT22;29013;49.676;8.606;2023-02-07T17:10:28;3.5;86.0
43414;DHT22;29013;49.676;8.606;2023-02-07T17:15:58;3.5;86.3
43414;DHT22;29013;49.676;8.606;2023-02-07T17:21:16;3.4;86.0
43414;DHT22;29013;49.676;8.606;2023-02-07T17:26:35;3.1;86.4
43414;DHT22;29013;49.676;8.606;2023-02-07T17:31:57;2.8;87.6
43414;DHT22;29013;49.676;8.606;2023-02-07T17:37:17;2.5;88.6
43414;DHT22;29013;49.676;8.606;2023-02-07T17:42:38;2.4;89.4
43414;DHT22;29013;49.676;8.606;2023-02-07T17:48:10;2.3;90.1
43414;DHT22;29013;49.676;8.606;2023-02-07T17:53:29;2.3;90.4
43414;DHT22;29013;49.676;8.606;2023-02-07T17:58:49;2.4;90.5
43414;DHT22;29013;49.676;8.606;2023-02-07T18:04:11;2.6;90.2
43414;DHT22;29013;49.676;8.606;2023-02-07T18:09:32;2.8;90.0
43414;DHT22;29013;49.676;8.606;2023-02-07T18:14:55;2.9;89.7
43414;DHT22;29013;49.676;8.606;2023-02-07T18:20:21;2.9;89.8
43414;DHT22;29013;49.676;8.606;2023-02-07T18:26:06;2.9;90.2
43414;DHT22;29013;49.676;8.606;2023-02-07T18:31:48;3.0;90.0
43414;DHT22;29013;49.676;8.606;2023-02-07T18:37:07;2.9;89.1
43414;DHT22;29013;49.676;8.606;2023-02-07T18:42:29;2.5;89.4
43414;DHT22;29013;49.676;8.606;2023-02-07T18:47:54;2.1;90.1
43414;DHT22;29013;49.676;8.606;2023-02-07T18:53:15;1.9;90.5
43414;DHT22;29013;49.676;8.606;2023-02-07T18:58:36;1.7;91.0
43414;DHT22;29013;49.676;8.606;2023-02-07T19:04:00;1.5;91.4
43414;DHT22;29013;49.676;8.606;2023-02-07T19:09:24;1.4;91.9
43414;DHT22;29013;49.676;8.606;2023-02-07T19:14:45;1.3;92.3
43414;DHT22;29013;49.676;8.606;2023-02-07T19:20:09;1.2;92.9
43414;DHT22;29013;49.676;8.606;2023-02-07T19:25:37;1.2;93.1
43414;DHT22;29013;49.676;8.606;2023-02-07T19:30:57;1.1;93.2
43414;DHT22;29013;49.676;8.606;2023-02-07T19:36:41;0.9;93.8
43414;DHT22;29013;49.676;8.606;2023-02-07T19:42:21;1.0;94.0
43414;DHT22;29013;49.676;8.606;2023-02-07T19:48:05;0.9;94.4
43414;DHT22;29013;49.676;8.606;2023-02-07T19:53:28;1.0;94.7
43414;DHT22;29013;49.676;8.606;2023-02-07T19:58:52;1.1;95.0
43414;DHT22;29013;49.676;8.606;2023-02-07T20:04:14;1.1;94.7
43414;DHT22;29013;49.676;8.606;2023-02-07T20:09:39;1.1;95.0
43414;DHT22;29013;49.676;8.606;2023-02-07T20:15:03;1.1;95.0
43414;DHT22;29013;49.676;8.606;2023-02-07T20:20:27;1.2;95.1
43414;DHT22;29013;49.676;8.606;2023-02-07T20:25:44;1.3;95.2
43414;DHT22;29013;49.676;8.606;2023-02-07T20:31:09;1.2;94.9
43414;DHT22;29013;49.676;8.606;2023-02-07T20:36:26;1.0;95.0
43414;DHT22;29013;49.676;8.606;2023-02-07T20:41:47;0.8;95.2
43414;DHT22;29013;49.676;8.606;2023-02-07T20:47:09;0.6;95.2
43414;DHT22;29013;49.676;8.606;2023-02-07T20:52:41;0.5;95.7
43414;DHT22;29013;49.676;8.606;2023-02-07T20:58:04;0.5;95.9
43414;DHT22;29013;49.676;8.606;2023-02-07T21:03:25;0.4;95.9
43414;DHT22;29013;49.676;8.606;2023-02-07T21:08:45;0.4;96.1
43414;DHT22;29013;49.676;8.606;2023-02-07T21:14:06;0.2;96.5
43414;DHT22;29013;49.676;8.606;2023-02-07T21:19:29;0.3;97.1
43414;DHT22;29013;49.676;8.606;2023-02-07T21:24:53;0.4;97.4
43414;DHT22;29013;49.676;8.606;2023-02-07T21:30:33;0.4;97.9
43414;DHT22;29013;49.676;8.606;2023-02-07T21:36:03;0.6;97.6
43414;DHT22;29013;49.676;8.606;2023-02-07T21:41:22;0.6;97.6
43414;DHT22;29013;49.676;8.606;2023-02-07T21:46:43;0.5;97.5
43414;DHT22;29013;49.676;8.606;2023-02-07T21:52:08;0.4;97.3
43414;DHT22;29013;49.676;8.606;2023-02-07T21:57:32;0.2;97.2
43414;DHT22;29013;49.676;8.606;2023-02-07T22:02:55;0.1;97.4
43414;DHT22;29013;49.676;8.606;2023-02-07T22:08:20;0.1;97.5
43414;DHT22;29013;49.676;8.606;2023-02-07T22:13:44;0.0;97.8
43414;DHT22;29013;49.676;8.606;2023-02-07T22:19:13;-0.1;97.7
43414;DHT22;29013;49.676;8.606;2023-02-07T22:24:30;0.0;97.8
43414;DHT22;29013;49.676;8.606;2023-02-07T22:29:53;0.0;98.1
43414;DHT22;29013;49.676;8.606;2023-02-07T22:35:11;0.1;98.3
43414;DHT22;29013;49.676;8.606;2023-02-07T22:40:35;0.1;98.4
43414;DHT22;29013;49.676;8.606;2023-02-07T22:46:12;0.1;98.7
43414;DHT22;29013;49.676;8.606;2023-02-07T22:51:31;0.2;98.5
43414;DHT22;29013;49.676;8.606;2023-02-07T22:56:50;0.2;98.6
43414;DHT22;29013;49.676;8.606;2023-02-07T23:02:14;0.1;98.7
43414;DHT22;29013;49.676;8.606;2023-02-07T23:07:38;0.0;98.2
43414;DHT22;29013;49.676;8.606;2023-02-07T23:13:02;-0.1;98.0
43414;DHT22;29013;49.676;8.606;2023-02-07T23:18:19;-0.2;97.9
43414;DHT22;29013;49.676;8.606;2023-02-07T23:23:58;-0.4;98.4
43414;DHT22;29013;49.676;8.606;2023-02-07T23:29:20;-0.3;98.1
43414;DHT22;29013;49.676;8.606;2023-02-07T23:34:40;-0.4;98.1
43414;DHT22;29013;49.676;8.606;2023-02-07T23:40:04;-0.5;98.0
43414;DHT22;29013;49.676;8.606;2023-02-07T23:45:26;-0.5;98.2
43414;DHT22;29013;49.676;8.606;2023-02-07T23:50:50;-0.6;98.3
43414;DHT22;29013;49.676;8.606;2023-02-07T23:56:14;-0.7;98.4
